Cleveland, Ohio
Current Conditions -  °F | °C
As of 3:18 AM on Tuesday 27 Jan 2015 (Local Time) from KBKL Reporting Station
Light Snow Light Snow  
Wind Chill:   Ceiling: 3000
Heat Index: 20°   Visibility: 7mi
Dew Point: 16°   Wind: 10mph
Humidity: 85%   Direction: 10°N
Pressure: 29.94"   Gusts: NA
Location:  41.5°N, 81.69°W
Report Text: KBKL 270818Z 01009KT 7SM -SN OVC030 M07/M09 A2994 RMK AO2 P0000 T10671089
Loading
Personal Weather Stations






























Interactive Weather Map New forecast layout! Learn more

10-Day Weather Forecast

Advertisements
Track Severe Weather on mobile